Time;durP1;ratioP1;P1;durP2;ratioP2;P2;SDS_P1;SDS_P2;PMS_P1;PMS_P2;Temp;Humidity;BMP_temperature;BMP_pressure;BME280_temperature;BME280_humidity;BME280_pressure;Samples;Min_cycle;Max_cycle;Signal;HPM_P1;HPM_P2
2022/02/08 00:01:10;;;;;;;20.97;5.07;;;;;;;;;;5048730;28;20278;-68
2022/02/08 00:03:35;;;;;;;22.07;5.07;;;;;;;;;;5050830;28;20197;-67
2022/02/08 00:08:25;;;;;;;27.10;5.43;;;;;;;;;;5041788;28;20828;-68
2022/02/08 00:10:50;;;;;;;26.27;6.93;;;;;;;;;;5048481;28;20252;-69
2022/02/08 00:13:15;;;;;;;24.90;5.07;;;;;;;;;;5042762;28;20662;-69
2022/02/08 00:15:41;;;;;;;20.87;4.30;;;;;;;;;;5023579;28;20205;-69
2022/02/08 00:18:07;;;;;;;20.43;5.33;;;;;;;;;;5019881;28;20193;-69
2022/02/08 00:20:32;;;;;;;19.00;5.13;;;;;;;;;;5029971;28;20193;-69
2022/02/08 00:22:57;;;;;;;21.00;5.80;;;;;;;;;;5040842;28;20184;-68
2022/02/08 00:25:22;;;;;;;14.33;6.23;;;;;;;;;;5046366;28;20625;-68
2022/02/08 00:27:48;;;;;;;22.03;5.10;;;;;;;;;;5028632;28;20227;-67
2022/02/08 00:30:13;;;;;;;26.03;5.70;;;;;;;;;;5023331;28;20658;-68
2022/02/08 00:32:38;;;;;;;24.80;5.53;;;;;;;;;;5026967;28;20293;-68
2022/02/08 00:35:03;;;;;;;22.33;5.80;;;;;;;;;;5028220;28;20752;-68
2022/02/08 00:37:28;;;;;;;24.30;6.30;;;;;;;;;;5028094;28;20185;-68
2022/02/08 00:39:54;;;;;;;20.87;5.97;;;;;;;;;;5035668;28;20192;-68
2022/02/08 00:42:20;;;;;;;19.77;6.50;;;;;;;;;;5045171;28;20206;-67
2022/02/08 00:45:05;;;;;;;27.70;6.37;;;;;;;;;;5050659;28;20336;-68
2022/02/08 00:47:35;;;;;;;23.03;7.10;;;;;;;;;;5046787;28;20196;-67
2022/02/08 00:50:08;;;;;;;17.07;6.83;;;;;;;;;;5049787;28;20182;-68
2022/02/08 00:52:34;;;;;;;20.57;7.27;;;;;;;;;;5044810;28;20190;-67
2022/02/08 00:54:59;;;;;;;16.70;5.90;;;;;;;;;;5046585;28;20215;-68
2022/02/08 00:57:25;;;;;;;23.87;7.43;;;;;;;;;;5050820;28;20196;-68
2022/02/08 00:59:50;;;;;;;19.63;6.30;;;;;;;;;;5050887;28;20178;-68
2022/02/08 01:02:15;;;;;;;26.93;7.90;;;;;;;;;;5049261;28;20278;-68
2022/02/08 01:04:42;;;;;;;19.10;5.83;;;;;;;;;;5042461;28;20182;-68
2022/02/08 01:07:09;;;;;;;28.87;6.40;;;;;;;;;;5043070;28;20631;-67
2022/02/08 01:12:09;;;;;;;23.83;7.43;;;;;;;;;;5042767;28;20243;-67
2022/02/08 01:14:40;;;;;;;19.20;7.47;;;;;;;;;;5048333;28;20647;-68
2022/02/08 01:17:06;;;;;;;22.73;6.73;;;;;;;;;;5047722;28;20162;-68
2022/02/08 01:19:32;;;;;;;19.90;7.60;;;;;;;;;;5042952;28;20205;-69
2022/02/08 01:21:57;;;;;;;22.93;9.00;;;;;;;;;;5049942;28;20671;-69
2022/02/08 01:24:22;;;;;;;16.97;6.73;;;;;;;;;;5049442;28;20178;-68
2022/02/08 01:26:55;;;;;;;18.53;8.10;;;;;;;;;;5050375;28;20567;-68
2022/02/08 01:29:34;;;;;;;25.83;9.50;;;;;;;;;;5040640;28;20269;-70
2022/02/08 01:32:13;;;;;;;27.93;9.47;;;;;;;;;;5030681;28;20769;-68
2022/02/08 01:34:53;;;;;;;24.27;9.90;;;;;;;;;;5028713;28;20227;-68
2022/02/08 01:37:39;;;;;;;24.43;8.27;;;;;;;;;;5048774;28;20189;-67
2022/02/08 01:40:07;;;;;;;23.17;8.40;;;;;;;;;;5047040;28;20257;-68
2022/02/08 01:45:38;;;;;;;23.13;9.23;;;;;;;;;;5049299;28;20200;-68
2022/02/08 01:48:12;;;;;;;19.83;8.93;;;;;;;;;;5045747;28;20208;-68
2022/02/08 01:50:38;;;;;;;24.43;10.23;;;;;;;;;;5044634;28;20280;-67
2022/02/08 01:53:04;;;;;;;23.70;9.63;;;;;;;;;;5049956;28;20276;-68
2022/02/08 01:55:30;;;;;;;23.33;8.87;;;;;;;;;;5046341;28;20212;-68
2022/02/08 01:57:55;;;;;;;17.67;9.60;;;;;;;;;;5048451;28;20178;-68
2022/02/08 02:00:20;;;;;;;16.10;8.93;;;;;;;;;;5030618;28;20679;-68
2022/02/08 02:02:46;;;;;;;25.30;10.23;;;;;;;;;;5043795;28;20181;-68
2022/02/08 02:05:11;;;;;;;19.23;9.50;;;;;;;;;;5036514;28;20237;-68
2022/02/08 02:07:37;;;;;;;22.50;10.70;;;;;;;;;;5044573;28;20189;-68
2022/02/08 02:10:03;;;;;;;19.97;10.80;;;;;;;;;;5061016;28;20197;-69
2022/02/08 02:12:28;;;;;;;23.63;11.30;;;;;;;;;;5060960;28;20193;-68
2022/02/08 02:14:55;;;;;;;24.60;12.20;;;;;;;;;;5049101;28;20622;-67
2022/02/08 02:17:20;;;;;;;28.67;13.50;;;;;;;;;;5048325;28;20181;-68
2022/02/08 02:19:46;;;;;;;27.93;11.93;;;;;;;;;;5050414;28;20181;-68
2022/02/08 02:22:11;;;;;;;20.87;11.23;;;;;;;;;;5044097;28;20197;-68
2022/02/08 02:24:37;;;;;;;18.87;11.90;;;;;;;;;;5034670;28;20209;-68
2022/02/08 02:27:04;;;;;;;23.10;11.63;;;;;;;;;;5033761;28;20190;-68
2022/02/08 02:29:30;;;;;;;27.00;12.50;;;;;;;;;;5029609;28;20196;-68
2022/02/08 02:31:55;;;;;;;25.20;11.73;;;;;;;;;;5043756;28;20197;-68
2022/02/08 02:34:23;;;;;;;31.40;12.30;;;;;;;;;;5033614;28;20215;-66
2022/02/08 02:36:49;;;;;;;27.17;12.27;;;;;;;;;;5043713;28;20554;-68
2022/02/08 02:39:14;;;;;;;27.17;11.80;;;;;;;;;;5037802;28;20356;-67
2022/02/08 02:41:43;;;;;;;32.37;13.70;;;;;;;;;;5031676;28;20213;-68
2022/02/08 02:44:10;;;;;;;24.93;12.37;;;;;;;;;;5044093;28;20586;-68
2022/02/08 02:46:35;;;;;;;20.90;11.53;;;;;;;;;;5033232;28;20239;-68
2022/02/08 02:49:01;;;;;;;29.70;12.70;;;;;;;;;;5025614;28;20402;-68
2022/02/08 02:51:26;;;;;;;26.53;11.70;;;;;;;;;;5047202;28;20206;-68
2022/02/08 02:53:52;;;;;;;21.23;11.83;;;;;;;;;;5048617;28;20205;-70
2022/02/08 02:56:17;;;;;;;22.03;10.83;;;;;;;;;;5048643;28;20239;-70
2022/02/08 02:58:42;;;;;;;19.67;11.20;;;;;;;;;;5048222;28;20169;-67
2022/02/08 03:17:33;;;;;;;16.43;9.53;;;;;;;;;;5042624;28;20188;-67
2022/02/08 03:19:50;;;;;;;19.20;10.03;;;;;;;;;;5046528;28;20556;-68
2022/02/08 03:22:15;;;;;;;23.67;10.60;;;;;;;;;;5049144;28;20201;-69
2022/02/08 03:24:40;;;;;;;20.83;10.73;;;;;;;;;;5050435;28;20260;-70
2022/02/08 03:27:05;;;;;;;25.90;11.17;;;;;;;;;;5033456;28;20678;-69
2022/02/08 03:29:30;;;;;;;26.77;10.87;;;;;;;;;;5052236;28;20193;-71
2022/02/08 03:31:56;;;;;;;23.30;10.27;;;;;;;;;;5052138;28;20218;-71
2022/02/08 03:34:21;;;;;;;22.40;11.10;;;;;;;;;;5050060;28;20193;-66
2022/02/08 03:36:46;;;;;;;20.73;11.23;;;;;;;;;;5050328;28;20680;-68
2022/02/08 03:39:22;;;;;;;21.33;10.30;;;;;;;;;;5049831;28;20180;-67
2022/02/08 03:41:51;;;;;;;27.67;11.93;;;;;;;;;;5045830;28;20358;-68
2022/02/08 03:44:21;;;;;;;24.00;10.83;;;;;;;;;;5041735;28;20186;-68
2022/02/08 03:46:46;;;;;;;22.27;10.30;;;;;;;;;;5044866;28;20343;-68
2022/02/08 03:49:12;;;;;;;22.47;11.70;;;;;;;;;;5051002;28;20272;-68
2022/02/08 03:51:47;;;;;;;17.20;9.73;;;;;;;;;;5036576;28;20198;-67
2022/02/08 03:54:13;;;;;;;20.57;10.97;;;;;;;;;;5049505;28;20215;-68
2022/02/08 03:56:38;;;;;;;19.53;11.23;;;;;;;;;;5049303;28;20169;-68
2022/02/08 03:59:04;;;;;;;19.23;9.67;;;;;;;;;;5017725;28;20206;-67
2022/02/08 04:04:47;;;;;;;23.17;10.20;;;;;;;;;;5051564;28;20296;-68
2022/02/08 04:07:04;;;;;;;20.23;10.10;;;;;;;;;;5050114;28;20201;-69
2022/02/08 04:09:29;;;;;;;21.03;11.00;;;;;;;;;;5049248;28;20252;-68
2022/02/08 04:14:40;;;;;;;19.10;8.77;;;;;;;;;;5052663;28;20212;-67
2022/02/08 04:41:26;;;;;;;13.27;7.57;;;;;;;;;;5050402;28;20327;-68
2022/02/08 04:44:14;;;;;;;16.73;7.50;;;;;;;;;;5044414;28;20250;-67
2022/02/08 04:49:04;;;;;;;24.30;9.17;;;;;;;;;;5046498;28;20214;-67
2022/02/08 04:51:36;;;;;;;19.60;8.57;;;;;;;;;;5041794;28;20376;-67
2022/02/08 04:54:10;;;;;;;21.07;7.20;;;;;;;;;;5033968;28;20229;-68
2022/02/08 04:59:20;;;;;;;19.67;7.60;;;;;;;;;;5047737;28;20181;-70
2022/02/08 05:44:42;;;;;;;12.50;3.80;;;;;;;;;;5041017;28;20201;-68
2022/02/08 05:47:08;;;;;;;12.70;3.20;;;;;;;;;;5027940;28;20185;-68
2022/02/08 05:49:49;;;;;;;18.00;3.63;;;;;;;;;;5045528;28;20643;-69
2022/02/08 05:54:40;;;;;;;16.93;4.27;;;;;;;;;;5047808;28;20202;-68
2022/02/08 05:57:06;;;;;;;12.27;3.13;;;;;;;;;;5048072;28;20246;-68
2022/02/08 05:59:31;;;;;;;15.97;3.17;;;;;;;;;;5038911;28;20269;-70
2022/02/08 06:01:56;;;;;;;16.70;3.00;;;;;;;;;;5029881;28;20238;-67
2022/02/08 06:04:22;;;;;;;13.63;3.73;;;;;;;;;;5043987;28;20665;-68
2022/02/08 06:06:47;;;;;;;10.83;2.80;;;;;;;;;;5047657;28;20560;-68
2022/02/08 06:09:12;;;;;;;14.80;2.50;;;;;;;;;;5025118;28;20243;-68
2022/02/08 06:11:39;;;;;;;14.37;3.00;;;;;;;;;;5028150;28;20220;-67
2022/02/08 06:14:04;;;;;;;11.27;3.07;;;;;;;;;;5038480;28;20289;-68
2022/02/08 06:16:30;;;;;;;8.93;2.67;;;;;;;;;;5047422;28;20663;-68
2022/02/08 06:18:55;;;;;;;11.13;3.83;;;;;;;;;;5028129;28;20170;-68
2022/02/08 06:21:20;;;;;;;11.67;3.60;;;;;;;;;;5049346;28;20286;-67
2022/02/08 06:23:45;;;;;;;15.97;3.63;;;;;;;;;;5048420;28;20177;-68
2022/02/08 06:26:12;;;;;;;9.13;2.23;;;;;;;;;;5046393;28;20196;-69
2022/02/08 06:28:37;;;;;;;10.50;2.57;;;;;;;;;;5048778;28;20192;-69
2022/02/08 06:31:02;;;;;;;11.17;2.53;;;;;;;;;;5047529;28;20698;-69
2022/02/08 06:33:28;;;;;;;9.77;2.47;;;;;;;;;;5031025;28;20636;-69
2022/02/08 06:35:53;;;;;;;12.77;4.10;;;;;;;;;;5031115;28;20694;-68
2022/02/08 06:38:19;;;;;;;10.93;2.77;;;;;;;;;;5048995;28;20182;-68
2022/02/08 06:40:48;;;;;;;20.97;4.27;;;;;;;;;;5029366;28;20558;-69
2022/02/08 06:43:14;;;;;;;9.57;2.77;;;;;;;;;;5045843;28;20537;-68
2022/02/08 06:45:40;;;;;;;7.43;2.20;;;;;;;;;;5048108;28;21450;-69
2022/02/08 06:48:07;;;;;;;7.73;2.87;;;;;;;;;;5047864;28;20191;-69
2022/02/08 06:50:32;;;;;;;7.57;2.87;;;;;;;;;;5048974;28;20726;-69
2022/02/08 06:52:57;;;;;;;6.67;2.40;;;;;;;;;;5048392;28;20208;-69
2022/02/08 06:55:26;;;;;;;11.57;2.90;;;;;;;;;;5046709;28;20205;-69
2022/02/08 06:58:15;;;;;;;12.87;2.90;;;;;;;;;;5048837;28;20182;-68
2022/02/08 07:00:42;;;;;;;6.33;2.10;;;;;;;;;;5050859;28;20206;-69
2022/02/08 07:03:12;;;;;;;10.60;2.63;;;;;;;;;;5051970;28;20177;-68
2022/02/08 07:05:38;;;;;;;10.63;2.87;;;;;;;;;;5049950;28;20177;-68
2022/02/08 07:08:04;;;;;;;12.40;3.27;;;;;;;;;;5053090;28;20616;-69
2022/02/08 07:13:08;;;;;;;18.57;3.80;;;;;;;;;;4999649;28;20218;-70
2022/02/08 07:15:34;;;;;;;12.67;2.73;;;;;;;;;;5001116;28;20203;-71
2022/02/08 07:18:00;;;;;;;10.80;3.60;;;;;;;;;;5014580;28;20640;-71
2022/02/08 07:20:26;;;;;;;8.33;3.10;;;;;;;;;;5001719;28;20183;-70
2022/02/08 07:22:51;;;;;;;9.27;2.50;;;;;;;;;;4999992;28;20200;-71
2022/02/08 07:25:16;;;;;;;11.90;2.50;;;;;;;;;;4996042;28;20230;-71
2022/02/08 07:27:41;;;;;;;9.37;3.00;;;;;;;;;;5005831;28;20179;-71
2022/02/08 07:30:11;;;;;;;12.50;2.17;;;;;;;;;;4996225;28;20242;-71
2022/02/08 07:32:38;;;;;;;10.20;2.07;;;;;;;;;;5006497;28;20636;-71
2022/02/08 07:35:32;;;;;;;5.10;1.70;;;;;;;;;;5008731;28;20676;-71
2022/02/08 07:41:34;;;;;;;6.63;2.00;;;;;;;;;;5007215;28;20603;-70
2022/02/08 07:43:11;;;;;;;9.37;1.90;;;;;;;;;;5010550;28;20213;-71
2022/02/08 07:45:37;;;;;;;6.97;1.80;;;;;;;;;;5010926;28;20215;-71
2022/02/08 07:48:02;;;;;;;12.60;2.30;;;;;;;;;;5006361;28;20425;-71
2022/02/08 07:50:27;;;;;;;8.70;1.50;;;;;;;;;;5003271;28;20189;-71
2022/02/08 07:52:53;;;;;;;15.60;2.17;;;;;;;;;;5012564;28;20293;-71
2022/02/08 07:55:22;;;;;;;7.10;1.90;;;;;;;;;;5012353;28;20199;-71
2022/02/08 07:57:47;;;;;;;5.83;1.80;;;;;;;;;;5002323;28;20633;-71
2022/02/08 08:00:13;;;;;;;7.87;2.20;;;;;;;;;;5003066;28;20263;-71
2022/02/08 08:02:38;;;;;;;8.33;2.40;;;;;;;;;;5006566;28;20669;-71
2022/02/08 08:05:04;;;;;;;6.77;1.80;;;;;;;;;;5000591;28;20211;-71
2022/02/08 08:07:29;;;;;;;6.40;2.63;;;;;;;;;;4997964;28;20228;-70
2022/02/08 08:09:55;;;;;;;7.90;2.83;;;;;;;;;;5004967;28;20596;-71
2022/02/08 08:12:22;;;;;;;5.47;1.43;;;;;;;;;;4995651;28;20222;-71
2022/02/08 08:14:47;;;;;;;8.00;1.57;;;;;;;;;;4990096;28;20206;-71
2022/02/08 08:19:38;;;;;;;11.30;2.43;;;;;;;;;;5012184;28;20752;-70
2022/02/08 08:22:08;;;;;;;5.37;1.67;;;;;;;;;;5012984;28;20518;-71
2022/02/08 08:24:33;;;;;;;7.93;2.30;;;;;;;;;;5009666;28;20266;-71
2022/02/08 08:26:58;;;;;;;5.80;1.67;;;;;;;;;;4985875;28;20740;-71
2022/02/08 08:29:24;;;;;;;7.70;2.33;;;;;;;;;;5008796;28;20230;-71
2022/02/08 08:31:49;;;;;;;6.60;1.63;;;;;;;;;;5006829;28;20199;-71
2022/02/08 08:34:14;;;;;;;6.07;1.60;;;;;;;;;;5005447;28;20207;-71
2022/02/08 08:36:40;;;;;;;6.63;1.50;;;;;;;;;;5006582;28;20175;-71
2022/02/08 08:39:07;;;;;;;8.00;1.50;;;;;;;;;;5009995;28;20203;-71
2022/02/08 08:42:24;;;;;;;8.40;1.40;;;;;;;;;;4991039;28;20714;-71
2022/02/08 08:52:28;;;;;;;7.30;1.60;;;;;;;;;;5007709;28;20261;-71
2022/02/08 08:54:54;;;;;;;8.47;1.67;;;;;;;;;;4988739;28;20207;-71
2022/02/08 08:57:19;;;;;;;5.27;1.50;;;;;;;;;;5010249;28;20334;-71
2022/02/08 08:59:44;;;;;;;7.03;1.67;;;;;;;;;;5006111;28;20187;-71
2022/02/08 09:02:09;;;;;;;7.07;1.77;;;;;;;;;;5007884;28;20195;-71
2022/02/08 09:04:40;;;;;;;6.27;1.43;;;;;;;;;;5008801;28;20187;-70
2022/02/08 09:07:05;;;;;;;6.47;1.60;;;;;;;;;;5003446;28;20186;-70
2022/02/08 09:09:32;;;;;;;7.23;1.63;;;;;;;;;;5004901;28;20184;-70
2022/02/08 09:12:16;;;;;;;4.60;1.83;;;;;;;;;;5008111;28;20230;-71
2022/02/08 09:26:01;;;;;;;7.07;1.97;;;;;;;;;;5006261;28;20327;-70
2022/02/08 09:28:19;;;;;;;7.57;1.43;;;;;;;;;;4995822;28;20202;-70
2022/02/08 09:30:50;;;;;;;10.50;1.57;;;;;;;;;;4986517;28;20184;-70
2022/02/08 09:33:15;;;;;;;4.87;1.17;;;;;;;;;;4997559;28;20292;-71
2022/02/08 09:35:40;;;;;;;8.07;1.60;;;;;;;;;;5006866;28;20657;-71
2022/02/08 09:38:05;;;;;;;5.67;1.13;;;;;;;;;;5003919;28;20183;-71
2022/02/08 09:40:31;;;;;;;8.40;2.00;;;;;;;;;;5008920;28;20176;-70
2022/02/08 09:42:58;;;;;;;6.23;1.73;;;;;;;;;;5001266;28;20217;-70
2022/02/08 09:45:24;;;;;;;6.30;2.03;;;;;;;;;;5009836;28;20558;-70
2022/02/08 09:48:17;;;;;;;8.80;2.70;;;;;;;;;;4987962;28;20278;-70
2022/02/08 09:50:38;;;;;;;6.43;1.47;;;;;;;;;;5007721;28;20186;-70
2022/02/08 09:53:07;;;;;;;3.83;1.20;;;;;;;;;;5006029;28;20182;-71
2022/02/08 09:55:36;;;;;;;5.20;1.53;;;;;;;;;;5004293;28;20197;-70
2022/02/08 09:58:01;;;;;;;7.53;1.73;;;;;;;;;;4986897;28;20723;-71
2022/02/08 10:00:27;;;;;;;12.27;1.77;;;;;;;;;;5000651;28;20290;-71
2022/02/08 10:03:02;;;;;;;9.70;1.60;;;;;;;;;;5000262;28;20569;-71
2022/02/08 10:05:37;;;;;;;5.37;1.50;;;;;;;;;;5003172;28;20174;-70
2022/02/08 10:08:05;;;;;;;10.60;1.70;;;;;;;;;;5001074;28;20536;-70
2022/02/08 10:10:31;;;;;;;9.43;1.77;;;;;;;;;;5002252;28;20525;-71
2022/02/08 10:23:32;;;;;;;8.57;1.37;;;;;;;;;;5006235;28;20562;-70
2022/02/08 10:26:08;;;;;;;8.50;1.50;;;;;;;;;;5004541;28;20415;-71
2022/02/08 10:40:02;;;;;;;4.65;1.13;;;;;;;;;;5012660;28;20182;-71
2022/02/08 10:42:29;;;;;;;5.37;1.53;;;;;;;;;;5010660;28;20280;-71
2022/02/08 10:44:54;;;;;;;8.53;1.57;;;;;;;;;;5014621;28;20182;-70
2022/02/08 10:47:36;;;;;;;6.77;1.30;;;;;;;;;;5012587;28;20174;-71
2022/02/08 10:50:03;;;;;;;4.57;1.70;;;;;;;;;;5008230;28;20317;-71
2022/02/08 10:52:29;;;;;;;3.97;1.48;;;;;;;;;;5014304;28;20203;-71
2022/02/08 10:54:56;;;;;;;6.97;1.17;;;;;;;;;;5012493;28;20205;-71
2022/02/08 10:57:32;;;;;;;6.17;1.30;;;;;;;;;;5011851;28;20233;-71
2022/02/08 11:00:02;;;;;;;7.20;1.80;;;;;;;;;;5011998;28;20181;-72
2022/02/08 11:02:36;;;;;;;6.40;1.52;;;;;;;;;;5010770;28;20208;-71
2022/02/08 11:05:13;;;;;;;5.97;1.42;;;;;;;;;;4995213;28;20724;-71
2022/02/08 11:10:15;;;;;;;6.45;1.65;;;;;;;;;;5007655;28;20266;-72
2022/02/08 11:18:05;;;;;;;6.07;1.42;;;;;;;;;;5016461;28;20178;-70
2022/02/08 11:20:34;;;;;;;11.83;1.60;;;;;;;;;;5002047;28;20186;-70
2022/02/08 11:23:10;;;;;;;6.53;2.05;;;;;;;;;;4999919;28;20182;-70
2022/02/08 11:25:40;;;;;;;6.97;1.33;;;;;;;;;;5016355;28;20186;-71
2022/02/08 11:28:08;;;;;;;6.28;1.30;;;;;;;;;;5016326;28;20221;-70
2022/02/08 11:30:47;;;;;;;4.93;1.42;;;;;;;;;;5014743;28;20183;-71
2022/02/08 11:33:36;;;;;;;6.38;1.23;;;;;;;;;;4991748;28;20187;-71
2022/02/08 11:39:56;;;;;;;4.50;1.10;;;;;;;;;;5005136;28;20195;-71
2022/02/08 11:42:56;;;;;;;3.40;1.10;;;;;;;;;;5004565;28;20222;-71
2022/02/08 11:45:39;;;;;;;4.68;1.30;;;;;;;;;;5009036;28;20231;-71
2022/02/08 11:48:15;;;;;;;3.75;0.90;;;;;;;;;;5009001;28;20214;-71
2022/02/08 11:56:20;;;;;;;6.00;0.82;;;;;;;;;;5004090;28;20754;-70
2022/02/08 11:58:48;;;;;;;6.85;1.55;;;;;;;;;;5002679;28;20190;-71
2022/02/08 12:01:17;;;;;;;11.32;2.65;;;;;;;;;;4987347;28;20205;-71
2022/02/08 12:04:09;;;;;;;2.58;1.10;;;;;;;;;;4987334;28;20309;-71
2022/02/08 12:06:49;;;;;;;5.38;1.23;;;;;;;;;;5006722;28;20179;-70
2022/02/08 12:09:23;;;;;;;4.32;1.17;;;;;;;;;;5009735;28;20501;-70
2022/02/08 12:27:10;;;;;;;7.30;2.20;;;;;;;;;;5001871;28;20237;-69
2022/02/08 12:50:00;;;;;;;4.05;1.58;;;;;;;;;;5007819;28;20218;-71
2022/02/08 12:55:08;;;;;;;4.93;1.33;;;;;;;;;;5007474;28;20210;-70
2022/02/08 12:57:48;;;;;;;5.82;1.67;;;;;;;;;;5002138;28;20184;-71
2022/02/08 13:03:26;;;;;;;4.38;1.27;;;;;;;;;;5007728;28;20198;-71
2022/02/08 13:20:14;;;;;;;5.88;1.48;;;;;;;;;;5040260;28;20193;-69
2022/02/08 14:29:52;;;;;;;4.05;1.38;;;;;;;;;;5050339;28;20231;-67
2022/02/08 14:32:24;;;;;;;3.30;1.15;;;;;;;;;;5031860;28;20594;-68
2022/02/08 15:10:01;;;;;;;5.28;0.88;;;;;;;;;;5052753;28;20191;-69
2022/02/08 15:12:31;;;;;;;4.93;1.67;;;;;;;;;;5054294;28;20225;-68
2022/02/08 15:15:07;;;;;;;6.45;1.63;;;;;;;;;;5043082;28;20285;-68
2022/02/08 15:17:33;;;;;;;4.55;1.38;;;;;;;;;;5047285;28;20170;-68
2022/02/08 15:20:01;;;;;;;5.07;1.60;;;;;;;;;;5051426;28;20196;-68
2022/02/08 15:22:26;;;;;;;5.80;1.38;;;;;;;;;;5031425;28;20712;-69
2022/02/08 15:24:51;;;;;;;5.43;1.23;;;;;;;;;;5049264;28;20271;-68
2022/02/08 15:27:17;;;;;;;7.65;1.50;;;;;;;;;;5028368;28;20216;-67
2022/02/08 15:29:43;;;;;;;3.97;1.27;;;;;;;;;;5036166;28;20303;-67
2022/02/08 15:32:14;;;;;;;4.22;1.27;;;;;;;;;;5048076;28;20288;-68
2022/02/08 15:34:40;;;;;;;6.32;1.65;;;;;;;;;;5050783;28;20352;-68
2022/02/08 15:37:05;;;;;;;3.22;1.20;;;;;;;;;;5052919;28;20198;-68
2022/02/08 15:39:31;;;;;;;5.00;1.73;;;;;;;;;;5052801;28;20180;-68
2022/02/08 15:41:56;;;;;;;2.80;1.03;;;;;;;;;;5050318;28;20204;-68
2022/02/08 15:44:24;;;;;;;3.92;1.02;;;;;;;;;;5048566;28;20186;-68
2022/02/08 15:46:52;;;;;;;2.25;1.20;;;;;;;;;;5052951;28;20596;-69
2022/02/08 15:49:17;;;;;;;4.73;1.30;;;;;;;;;;5049477;28;20223;-68
2022/02/08 15:51:48;;;;;;;8.57;2.45;;;;;;;;;;5051369;28;20198;-67
2022/02/08 16:07:13;;;;;;;4.57;1.13;;;;;;;;;;5050887;28;20430;-68
2022/02/08 16:09:47;;;;;;;3.47;1.07;;;;;;;;;;5049668;28;20182;-68
2022/02/08 16:12:34;;;;;;;6.07;1.27;;;;;;;;;;5049142;28;20714;-69
2022/02/08 16:17:37;;;;;;;2.47;1.10;;;;;;;;;;5049687;28;20419;-68
2022/02/08 16:22:58;;;;;;;3.03;1.10;;;;;;;;;;5050932;28;20236;-67
2022/02/08 16:28:18;;;;;;;3.73;1.13;;;;;;;;;;5049966;28;20351;-68
2022/02/08 16:31:19;;;;;;;4.50;1.20;;;;;;;;;;5042069;28;20243;-67
2022/02/08 16:33:59;;;;;;;5.10;1.10;;;;;;;;;;5033092;28;20271;-67
2022/02/08 16:53:10;;;;;;;6.40;1.90;;;;;;;;;;5052335;28;20573;-68
2022/02/08 16:58:23;;;;;;;5.67;1.30;;;;;;;;;;5050570;28;20192;-67
2022/02/08 17:00:50;;;;;;;4.47;1.30;;;;;;;;;;5050452;28;20265;-68
2022/02/08 17:03:21;;;;;;;5.30;1.90;;;;;;;;;;5049762;28;20215;-67
2022/02/08 17:05:46;;;;;;;4.60;1.30;;;;;;;;;;5049092;28;20797;-68
2022/02/08 17:08:13;;;;;;;4.47;1.57;;;;;;;;;;5050086;28;20197;-68
2022/02/08 17:10:43;;;;;;;5.80;1.37;;;;;;;;;;5050648;28;20732;-69
2022/02/08 17:13:19;;;;;;;20.23;3.20;;;;;;;;;;5049174;28;20658;-68
2022/02/08 17:15:57;;;;;;;4.00;1.40;;;;;;;;;;5031011;28;20228;-67
2022/02/08 17:18:55;;;;;;;7.13;1.30;;;;;;;;;;5050850;28;20182;-68
2022/02/08 17:47:48;;;;;;;4.87;1.87;;;;;;;;;;5050911;28;20816;-69
2022/02/08 17:50:14;;;;;;;3.03;1.43;;;;;;;;;;5049516;28;20269;-68
2022/02/08 17:52:41;;;;;;;5.80;1.47;;;;;;;;;;5048674;28;20658;-68
2022/02/08 17:55:06;;;;;;;6.07;1.53;;;;;;;;;;5048207;28;20677;-68
2022/02/08 17:57:32;;;;;;;7.50;1.70;;;;;;;;;;5032122;28;20197;-68
2022/02/08 17:59:57;;;;;;;5.47;1.40;;;;;;;;;;5049502;28;20223;-67
2022/02/08 18:02:22;;;;;;;3.80;1.60;;;;;;;;;;5045868;28;20421;-68
2022/02/08 18:04:49;;;;;;;5.20;1.60;;;;;;;;;;5049095;28;20189;-68
2022/02/08 18:07:19;;;;;;;8.07;2.50;;;;;;;;;;5050171;28;20189;-68
2022/02/08 18:09:44;;;;;;;3.33;1.30;;;;;;;;;;5048491;28;20178;-68
2022/02/08 18:12:10;;;;;;;4.70;1.20;;;;;;;;;;5049927;28;20205;-68
2022/02/08 18:14:35;;;;;;;5.50;1.43;;;;;;;;;;5047731;28;20197;-68
2022/02/08 18:17:24;;;;;;;6.10;1.73;;;;;;;;;;5050136;28;20170;-67
2022/02/08 18:19:55;;;;;;;4.73;1.23;;;;;;;;;;5043679;28;20188;-67
2022/02/08 18:22:29;;;;;;;8.93;2.13;;;;;;;;;;5046761;28;20276;-70
2022/02/08 18:25:32;;;;;;;4.40;1.13;;;;;;;;;;5031088;28;20650;-68
2022/02/08 18:57:41;;;;;;;6.47;2.17;;;;;;;;;;5062085;28;20205;-69
2022/02/08 19:16:29;;;;;;;7.60;1.73;;;;;;;;;;5053330;28;20231;-69
2022/02/08 19:21:57;;;;;;;6.57;1.53;;;;;;;;;;4991800;28;20223;-69
2022/02/08 19:24:22;;;;;;;4.03;1.57;;;;;;;;;;5040630;28;20339;-69
2022/02/08 19:26:52;;;;;;;8.90;2.90;;;;;;;;;;5052897;28;20268;-69
2022/02/08 19:29:17;;;;;;;7.53;2.53;;;;;;;;;;5052834;28;20188;-69
2022/02/08 19:31:43;;;;;;;4.40;1.50;;;;;;;;;;5053124;28;20189;-69
2022/02/08 19:34:08;;;;;;;6.23;2.43;;;;;;;;;;5052560;28;20194;-69
2022/02/08 19:36:34;;;;;;;4.97;1.40;;;;;;;;;;5052608;28;20166;-68
2022/02/08 19:39:03;;;;;;;6.70;1.77;;;;;;;;;;5046103;28;20264;-69
2022/02/08 19:41:28;;;;;;;2.63;1.67;;;;;;;;;;5035621;28;20197;-68
2022/02/08 19:43:53;;;;;;;9.13;2.30;;;;;;;;;;5051858;28;20184;-68
2022/02/08 19:46:18;;;;;;;3.03;1.60;;;;;;;;;;5051264;28;20200;-67
2022/02/08 19:48:44;;;;;;;6.10;1.47;;;;;;;;;;5050379;28;20197;-69
2022/02/08 19:51:09;;;;;;;4.13;1.53;;;;;;;;;;5052327;28;20670;-69
2022/02/08 19:53:36;;;;;;;3.53;1.70;;;;;;;;;;5052243;28;20181;-69
2022/02/08 19:58:28;;;;;;;8.87;3.67;;;;;;;;;;5052334;28;20484;-69
2022/02/08 20:01:06;;;;;;;11.20;2.23;;;;;;;;;;5052336;28;20657;-69
2022/02/08 20:03:36;;;;;;;4.03;1.33;;;;;;;;;;5052194;28;20618;-69
2022/02/08 20:06:01;;;;;;;5.80;1.80;;;;;;;;;;5050895;28;20761;-69
2022/02/08 20:08:27;;;;;;;9.53;2.27;;;;;;;;;;5052535;28;20271;-68
2022/02/08 20:10:53;;;;;;;5.17;1.43;;;;;;;;;;5052084;28;20245;-69
2022/02/08 20:13:21;;;;;;;7.80;1.80;;;;;;;;;;5034069;28;20201;-69
2022/02/08 20:15:46;;;;;;;5.93;1.53;;;;;;;;;;5052259;28;20206;-69
2022/02/08 20:18:11;;;;;;;6.60;1.60;;;;;;;;;;5034286;28;20533;-69
2022/02/08 20:20:36;;;;;;;2.63;1.03;;;;;;;;;;5051959;28;20255;-69
2022/02/08 20:23:04;;;;;;;6.27;1.53;;;;;;;;;;5048990;28;20566;-68
2022/02/08 20:25:29;;;;;;;5.87;1.87;;;;;;;;;;5033304;28;20181;-69
2022/02/08 20:28:05;;;;;;;5.03;1.63;;;;;;;;;;5051869;28;20208;-68
2022/02/08 20:30:32;;;;;;;3.73;1.60;;;;;;;;;;5052094;28;20557;-69
2022/02/08 20:32:57;;;;;;;6.33;1.40;;;;;;;;;;5051485;28;20209;-69
2022/02/08 20:35:23;;;;;;;5.93;1.90;;;;;;;;;;5051164;28;20558;-68
2022/02/08 20:37:49;;;;;;;4.30;1.67;;;;;;;;;;5051652;28;20177;-69
2022/02/08 20:40:15;;;;;;;5.53;1.40;;;;;;;;;;5051466;28;20315;-68
2022/02/08 20:42:41;;;;;;;3.50;1.10;;;;;;;;;;5051371;28;20215;-68
2022/02/08 20:45:07;;;;;;;6.70;1.40;;;;;;;;;;5051380;28;20266;-68
2022/02/08 20:47:34;;;;;;;2.63;1.23;;;;;;;;;;5051261;28;20170;-69
2022/02/08 20:50:14;;;;;;;5.17;1.40;;;;;;;;;;5051287;28;20227;-69
2022/02/08 20:52:49;;;;;;;4.00;1.73;;;;;;;;;;5033071;28;20566;-68
2022/02/08 20:55:17;;;;;;;3.30;1.20;;;;;;;;;;5050500;28;20308;-68
2022/02/08 20:57:50;;;;;;;4.20;1.37;;;;;;;;;;5050592;28;20256;-68
2022/02/08 21:00:15;;;;;;;7.73;1.63;;;;;;;;;;5050599;28;20231;-67
2022/02/08 21:02:53;;;;;;;7.10;1.83;;;;;;;;;;5050655;28;20561;-67
2022/02/08 21:05:32;;;;;;;6.33;2.87;;;;;;;;;;5050325;28;20181;-68
2022/02/08 21:07:57;;;;;;;5.30;1.60;;;;;;;;;;5048590;28;20182;-67
2022/02/08 21:10:23;;;;;;;3.30;1.43;;;;;;;;;;5050776;28;20173;-69
2022/02/08 21:13:41;;;;;;;7.83;2.00;;;;;;;;;;5049682;28;20492;-67
2022/02/08 21:15:34;;;;;;;4.20;1.67;;;;;;;;;;5039403;28;20209;-67
2022/02/08 21:17:59;;;;;;;8.73;2.60;;;;;;;;;;5050629;28;20253;-67
2022/02/08 21:20:25;;;;;;;5.60;1.20;;;;;;;;;;5050656;28;20217;-67
2022/02/08 21:22:50;;;;;;;4.80;2.00;;;;;;;;;;5046975;28;20248;-68
2022/02/08 21:25:15;;;;;;;7.77;1.70;;;;;;;;;;5046613;28;20190;-68
2022/02/08 21:27:46;;;;;;;3.33;1.43;;;;;;;;;;5048050;28;20177;-68
2022/02/08 21:54:06;;;;;;;5.40;2.07;;;;;;;;;;5018813;28;20768;-68
2022/02/08 21:56:31;;;;;;;5.07;2.30;;;;;;;;;;5047487;28;20185;-67
2022/02/08 21:58:56;;;;;;;6.90;2.63;;;;;;;;;;5046170;28;20209;-67
2022/02/08 22:01:22;;;;;;;5.10;1.90;;;;;;;;;;5045654;28;20198;-67
2022/02/08 22:03:47;;;;;;;4.63;1.60;;;;;;;;;;5030674;28;21678;-68
2022/02/08 22:06:12;;;;;;;6.97;2.47;;;;;;;;;;5049075;28;20207;-67
2022/02/08 22:08:40;;;;;;;5.23;1.77;;;;;;;;;;5049259;28;20249;-68
2022/02/08 22:21:16;;;;;;;4.20;2.53;;;;;;;;;;5049299;28;20205;-68
2022/02/08 22:31:24;;;;;;;6.93;2.60;;;;;;;;;;5049125;28;20704;-67
2022/02/08 22:33:52;;;;;;;5.23;2.47;;;;;;;;;;5049339;28;20238;-68
2022/02/08 22:36:23;;;;;;;9.87;2.90;;;;;;;;;;5046553;28;20674;-68
2022/02/08 22:39:00;;;;;;;4.67;2.63;;;;;;;;;;5048748;28;20549;-68
2022/02/08 22:41:41;;;;;;;4.70;2.37;;;;;;;;;;5045813;28;20205;-67
2022/02/08 22:44:17;;;;;;;3.40;2.40;;;;;;;;;;5037984;28;20647;-67
2022/02/08 22:46:42;;;;;;;5.03;2.70;;;;;;;;;;5028950;28;20546;-68
2022/02/08 22:49:07;;;;;;;5.00;2.40;;;;;;;;;;5046760;28;20170;-67
2022/02/08 22:51:33;;;;;;;5.13;2.80;;;;;;;;;;5040246;28;20213;-67
2022/02/08 22:53:58;;;;;;;12.60;3.00;;;;;;;;;;5047608;28;20186;-68